Terminal Aerodrome Forecast
Issued by NWS

Home | Current Version | Previous Version | Graphics & Text | Print | Product List | Glossary On
Versions: 1 2 3 4 5 6 7 8 9 10 11 12 13 14 15 16 17 18 19 20 21 22 23 24 25 26 27 28 29 30 31 32 33 34 35 36 37 38
000
FTUS43 KABR 232340
TAFATY
TAF
KATY 232340Z 2400/2424 11016G25KT P6SM OVC004
     FM240200 12014G24KT 5SM BR OVC003 WS020/16040KT
     FM241200 15014KT P6SM OVC007
     FM241500 16017G25KT P6SM SCT015
     FM241700 16018G28KT P6SM SHRA VCTS OVC035CB=

USA.gov is the U.S. government's official web portal to all federal, state and local government web resources and services.